Time,TemperatureF,DewpointF,PressureIn,WindDirection,WindDirectionDegrees,WindSpeedMPH,WindSpeedGustMPH,Humidity,HourlyPrecipIn,Conditions,Clouds,dailyrainin,SolarRadiationWatts/m^2,SoftwareType,DateUTC
2013-10-11 00:01:00,48.0,45.7,30.21,NNW,336,0.0,1.0,92,0.00,,,0.00,0.0,WUHU216DAVISVP2,2013-10-11 04:01:00,
2013-10-11 00:06:00,47.9,45.7,30.21,NNW,336,0.0,1.0,92,0.00,,,0.00,0.0,WUHU216DAVISVP2,2013-10-11 04:06:00,
2013-10-11 00:11:00,48.0,45.8,30.20,NNW,336,0.0,1.0,92,0.00,,,0.00,0.0,WUHU216DAVISVP2,2013-10-11 04:11:00,
2013-10-11 00:16:00,48.0,45.8,30.20,NNW,336,0.0,1.0,92,0.00,,,0.00,0.0,WUHU216DAVISVP2,2013-10-11 04:16:00,
2013-10-11 00:21:00,47.9,45.7,30.21,NNW,336,0.0,1.0,92,0.00,,,0.00,0.0,WUHU216DAVISVP2,2013-10-11 04:21:00,
2013-10-11 00:26:00,47.9,45.6,30.20,NNW,336,0.0,1.0,92,0.00,,,0.00,0.0,WUHU216DAVISVP2,2013-10-11 04:26:00,
2013-10-11 00:31:00,47.9,45.6,30.20,NNW,336,0.0,1.0,92,0.00,,,0.00,0.0,WUHU216DAVISVP2,2013-10-11 04:31:00,
2013-10-11 00:36:00,47.9,45.6,30.20,NNW,336,0.0,1.0,92,0.00,,,0.00,0.0,WUHU216DAVISVP2,2013-10-11 04:36:00,
2013-10-11 00:41:00,47.7,45.4,30.20,NNW,336,0.0,1.0,92,0.00,,,0.00,0.0,WUHU216DAVISVP2,2013-10-11 04:41:00,
2013-10-11 00:46:00,47.7,45.4,30.20,NNW,336,0.0,1.0,92,0.00,,,0.00,0.0,WUHU216DAVISVP2,2013-10-11 04:46:00,
2013-10-11 00:51:00,47.7,45.4,30.20,NNW,336,0.0,1.0,92,0.00,,,0.00,0.0,WUHU216DAVISVP2,2013-10-11 04:51:00,
2013-10-11 00:56:00,47.7,45.4,30.20,NNW,336,0.0,0.0,92,0.00,,,0.00,0.0,WUHU216DAVISVP2,2013-10-11 04:56:00,
2013-10-11 01:01:00,47.7,45.4,30.20,NNW,336,0.0,1.0,92,0.00,,,0.00,0.0,WUHU216DAVISVP2,2013-10-11 05:01:00,
2013-10-11 01:06:00,47.7,45.4,30.20,NNW,336,0.0,1.0,92,0.00,,,0.00,0.0,WUHU216DAVISVP2,2013-10-11 05:06:00,
2013-10-11 01:11:00,47.6,45.3,30.20,NNW,336,0.0,1.0,92,0.00,,,0.00,0.0,WUHU216DAVISVP2,2013-10-11 05:11:00,
2013-10-11 01:16:00,47.3,45.0,30.20,NNW,336,0.0,1.0,92,0.00,,,0.00,0.0,WUHU216DAVISVP2,2013-10-11 05:16:00,
2013-10-11 01:21:00,47.2,45.0,30.20,NNW,336,0.0,0.0,92,0.00,,,0.00,0.0,WUHU216DAVISVP2,2013-10-11 05:21:00,
2013-10-11 01:26:00,47.3,45.0,30.20,NNW,336,0.0,0.0,92,0.00,,,0.00,0.0,WUHU216DAVISVP2,2013-10-11 05:26:00,
2013-10-11 01:31:00,47.1,44.9,30.20,NNW,336,0.0,0.0,92,0.00,,,0.00,0.0,WUHU216DAVISVP2,2013-10-11 05:31:00,
2013-10-11 01:36:00,46.9,44.7,30.20,NNW,336,0.0,0.0,92,0.00,,,0.00,0.0,WUHU216DAVISVP2,2013-10-11 05:36:00,
2013-10-11 01:41:00,46.6,44.4,30.19,NNW,336,0.0,0.0,92,0.00,,,0.00,0.0,WUHU216DAVISVP2,2013-10-11 05:41:00,
2013-10-11 01:46:00,46.6,44.4,30.19,NNW,336,0.0,1.0,92,0.00,,,0.00,0.0,WUHU216DAVISVP2,2013-10-11 05:46:00,
2013-10-11 01:51:00,46.5,44.5,30.19,NNW,336,0.0,1.0,93,0.00,,,0.00,0.0,WUHU216DAVISVP2,2013-10-11 05:51:00,
2013-10-11 01:56:00,46.5,44.5,30.19,NNW,336,0.0,1.0,93,0.00,,,0.00,0.0,WUHU216DAVISVP2,2013-10-11 05:56:00,
2013-10-11 02:01:00,46.3,44.1,30.19,NNW,336,0.0,1.0,92,0.00,,,0.00,0.0,WUHU216DAVISVP2,2013-10-11 06:01:00,
2013-10-11 02:06:00,46.3,44.3,30.19,NNW,336,0.0,0.0,93,0.00,,,0.00,0.0,WUHU216DAVISVP2,2013-10-11 06:06:00,
2013-10-11 02:11:00,46.2,44.3,30.19,NNW,336,0.0,0.0,93,0.00,,,0.00,0.0,WUHU216DAVISVP2,2013-10-11 06:11:00,
2013-10-11 02:16:00,46.3,44.4,30.19,NNW,336,0.0,0.0,93,0.00,,,0.00,0.0,WUHU216DAVISVP2,2013-10-11 06:16:00,
2013-10-11 02:21:00,46.7,44.8,30.18,NNW,336,0.0,0.0,93,0.00,,,0.00,0.0,WUHU216DAVISVP2,2013-10-11 06:21:00,
2013-10-11 02:26:00,46.9,45.0,30.18,NNW,336,0.0,0.0,93,0.00,,,0.00,0.0,WUHU216DAVISVP2,2013-10-11 06:26:00,
2013-10-11 02:31:00,46.9,44.9,30.18,NNW,336,0.0,0.0,93,0.00,,,0.00,0.0,WUHU216DAVISVP2,2013-10-11 06:31:00,
2013-10-11 02:36:00,46.8,44.8,30.18,NNW,336,0.0,0.0,93,0.00,,,0.00,0.0,WUHU216DAVISVP2,2013-10-11 06:36:00,
2013-10-11 02:41:00,46.5,44.5,30.18,NNW,336,0.0,1.0,93,0.00,,,0.00,0.0,WUHU216DAVISVP2,2013-10-11 06:41:00,
2013-10-11 02:46:00,46.3,44.3,30.18,NNW,336,0.0,1.0,93,0.00,,,0.00,0.0,WUHU216DAVISVP2,2013-10-11 06:46:00,
2013-10-11 02:51:00,46.1,43.9,30.17,NNW,336,0.0,1.0,92,0.00,,,0.00,0.0,WUHU216DAVISVP2,2013-10-11 06:51:00,
2013-10-11 02:56:00,46.1,44.1,30.17,NNW,336,1.0,2.0,93,0.00,,,0.00,0.0,WUHU216DAVISVP2,2013-10-11 06:56:00,
2013-10-11 03:01:00,46.0,44.0,30.17,NNW,336,0.0,2.0,93,0.00,,,0.00,0.0,WUHU216DAVISVP2,2013-10-11 07:01:00,
2013-10-11 03:06:00,46.0,44.0,30.17,NNW,336,0.0,2.0,93,0.00,,,0.00,0.0,WUHU216DAVISVP2,2013-10-11 07:06:00,
2013-10-11 03:11:00,45.8,43.8,30.17,NNW,336,0.0,2.0,93,0.00,,,0.00,0.0,WUHU216DAVISVP2,2013-10-11 07:11:00,
2013-10-11 03:16:00,45.8,43.8,30.17,NNW,336,0.0,1.0,93,0.00,,,0.00,0.0,WUHU216DAVISVP2,2013-10-11 07:16:00,
2013-10-11 03:21:00,45.8,43.8,30.17,NNW,336,0.0,1.0,93,0.00,,,0.00,0.0,WUHU216DAVISVP2,2013-10-11 07:21:00,
2013-10-11 03:26:00,46.0,44.0,30.17,NNW,336,0.0,1.0,93,0.00,,,0.00,0.0,WUHU216DAVISVP2,2013-10-11 07:26:00,
2013-10-11 03:31:00,46.3,44.3,30.17,NNW,336,1.0,1.0,93,0.00,,,0.00,0.0,WUHU216DAVISVP2,2013-10-11 07:31:00,
2013-10-11 03:36:00,46.1,44.1,30.17,NNW,336,1.0,1.0,93,0.00,,,0.00,0.0,WUHU216DAVISVP2,2013-10-11 07:36:00,
2013-10-11 03:41:00,46.1,44.1,30.17,NNW,336,1.0,1.0,93,0.00,,,0.00,0.0,WUHU216DAVISVP2,2013-10-11 07:41:00,
2013-10-11 03:46:00,46.2,44.2,30.17,NNW,336,1.0,2.0,93,0.00,,,0.00,0.0,WUHU216DAVISVP2,2013-10-11 07:46:00,
2013-10-11 03:51:00,46.3,44.3,30.17,NNW,336,0.0,2.0,93,0.00,,,0.00,0.0,WUHU216DAVISVP2,2013-10-11 07:51:00,
2013-10-11 03:56:00,46.0,44.0,30.17,NNW,336,1.0,2.0,93,0.00,,,0.00,0.0,WUHU216DAVISVP2,2013-10-11 07:56:00,
2013-10-11 04:01:00,45.7,43.8,30.17,NNW,336,0.0,2.0,93,0.00,,,0.00,0.0,WUHU216DAVISVP2,2013-10-11 08:01:00,
2013-10-11 04:06:00,45.5,43.6,30.17,NNW,336,0.0,1.0,93,0.00,,,0.00,0.0,WUHU216DAVISVP2,2013-10-11 08:06:00,
2013-10-11 04:11:00,45.2,43.3,30.17,NNW,336,0.0,1.0,93,0.00,,,0.00,0.0,WUHU216DAVISVP2,2013-10-11 08:11:00,
2013-10-11 04:16:00,45.1,43.2,30.17,NNW,336,0.0,1.0,93,0.00,,,0.00,0.0,WUHU216DAVISVP2,2013-10-11 08:16:00,
2013-10-11 04:21:00,45.0,43.1,30.17,NNW,336,0.0,0.0,93,0.00,,,0.00,0.0,WUHU216DAVISVP2,2013-10-11 08:21:00,
2013-10-11 04:26:00,44.9,43.0,30.17,NNW,336,0.0,0.0,93,0.00,,,0.00,0.0,WUHU216DAVISVP2,2013-10-11 08:26:00,
2013-10-11 04:31:00,44.9,43.0,30.17,NNW,336,0.0,0.0,93,0.00,,,0.00,0.0,WUHU216DAVISVP2,2013-10-11 08:31:00,
2013-10-11 04:36:00,44.9,43.0,30.18,NNW,336,0.0,0.0,93,0.00,,,0.00,0.0,WUHU216DAVISVP2,2013-10-11 08:36:00,
2013-10-11 04:41:00,44.9,43.0,30.17,NNW,336,1.0,2.0,93,0.00,,,0.00,0.0,WUHU216DAVISVP2,2013-10-11 08:41:00,
2013-10-11 04:46:00,44.9,43.0,30.18,NNW,336,0.0,2.0,93,0.00,,,0.00,0.0,WUHU216DAVISVP2,2013-10-11 08:46:00,
2013-10-11 04:51:00,45.1,43.2,30.18,NNW,336,0.0,2.0,93,0.00,,,0.00,0.0,WUHU216DAVISVP2,2013-10-11 08:51:00,
2013-10-11 04:56:00,45.0,43.1,30.17,NNW,336,0.0,2.0,93,0.00,,,0.00,0.0,WUHU216DAVISVP2,2013-10-11 08:56:00,
2013-10-11 05:01:00,44.9,43.0,30.18,NNW,336,0.0,1.0,93,0.00,,,0.00,0.0,WUHU216DAVISVP2,2013-10-11 09:01:00,
2013-10-11 05:06:00,45.0,43.1,30.18,NNW,336,0.0,1.0,93,0.00,,,0.00,0.0,WUHU216DAVISVP2,2013-10-11 09:06:00,
2013-10-11 05:11:00,45.0,43.1,30.18,NNW,336,0.0,0.0,93,0.00,,,0.00,0.0,WUHU216DAVISVP2,2013-10-11 09:11:00,
2013-10-11 05:16:00,44.9,43.0,30.18,NNW,336,0.0,1.0,93,0.00,,,0.00,0.0,WUHU216DAVISVP2,2013-10-11 09:16:00,
2013-10-11 05:21:00,44.8,42.9,30.17,NNW,336,0.0,1.0,93,0.00,,,0.00,0.0,WUHU216DAVISVP2,2013-10-11 09:21:00,
2013-10-11 05:26:00,44.8,42.9,30.18,NNW,336,0.0,1.0,93,0.00,,,0.00,0.0,WUHU216DAVISVP2,2013-10-11 09:26:00,
2013-10-11 05:31:00,44.7,42.8,30.18,NNW,336,0.0,1.0,93,0.00,,,0.00,0.0,WUHU216DAVISVP2,2013-10-11 09:31:00,
2013-10-11 05:36:00,45.0,43.1,30.18,NNW,336,0.0,1.0,93,0.00,,,0.00,0.0,WUHU216DAVISVP2,2013-10-11 09:36:00,
2013-10-11 05:41:00,45.4,43.5,30.18,NNW,336,0.0,1.0,93,0.00,,,0.00,0.0,WUHU216DAVISVP2,2013-10-11 09:41:00,
2013-10-11 05:46:00,45.4,43.5,30.18,NNW,336,0.0,1.0,93,0.00,,,0.00,0.0,WUHU216DAVISVP2,2013-10-11 09:46:00,
2013-10-11 05:51:00,45.4,43.5,30.18,NNW,336,0.0,1.0,93,0.00,,,0.00,0.0,WUHU216DAVISVP2,2013-10-11 09:51:00,
2013-10-11 05:56:00,45.2,43.3,30.18,NNW,336,0.0,1.0,93,0.00,,,0.00,0.0,WUHU216DAVISVP2,2013-10-11 09:56:00,
2013-10-11 06:01:00,45.1,43.2,30.18,NNW,336,0.0,1.0,93,0.00,,,0.00,0.0,WUHU216DAVISVP2,2013-10-11 10:01:00,
2013-10-11 06:06:00,45.0,43.1,30.18,NNW,336,0.0,1.0,93,0.00,,,0.00,0.0,WUHU216DAVISVP2,2013-10-11 10:06:00,
2013-10-11 06:11:00,44.9,43.0,30.18,NNW,336,0.0,1.0,93,0.00,,,0.00,0.0,WUHU216DAVISVP2,2013-10-11 10:11:00,
2013-10-11 06:16:00,44.9,43.0,30.18,NNW,336,0.0,0.0,93,0.00,,,0.00,0.0,WUHU216DAVISVP2,2013-10-11 10:16:00,
2013-10-11 06:21:00,45.0,43.1,30.18,NNW,336,0.0,0.0,93,0.00,,,0.00,0.0,WUHU216DAVISVP2,2013-10-11 10:21:00,
2013-10-11 06:26:00,45.1,43.2,30.18,NNW,336,0.0,1.0,93,0.00,,,0.00,0.0,WUHU216DAVISVP2,2013-10-11 10:26:00,
2013-10-11 06:31:00,45.0,43.1,30.18,NNW,336,0.0,1.0,93,0.00,,,0.00,0.0,WUHU216DAVISVP2,2013-10-11 10:31:00,
2013-10-11 06:36:00,44.9,43.0,30.18,NNW,336,0.0,1.0,93,0.00,,,0.00,0.0,WUHU216DAVISVP2,2013-10-11 10:36:00,
2013-10-11 06:41:00,44.9,43.0,30.18,NNW,336,0.0,1.0,93,0.00,,,0.00,0.0,WUHU216DAVISVP2,2013-10-11 10:41:00,
2013-10-11 06:46:00,44.8,42.9,30.18,NNW,336,0.0,1.0,93,0.00,,,0.00,0.0,WUHU216DAVISVP2,2013-10-11 10:46:00,
2013-10-11 06:51:00,44.7,42.8,30.18,NNW,336,0.0,1.0,93,0.00,,,0.00,0.0,WUHU216DAVISVP2,2013-10-11 10:51:00,
2013-10-11 06:56:00,44.7,42.8,30.18,NNW,336,0.0,1.0,93,0.00,,,0.00,0.0,WUHU216DAVISVP2,2013-10-11 10:56:00,
2013-10-11 07:01:00,44.7,42.8,30.18,NNW,336,0.0,0.0,93,0.00,,,0.00,0.0,WUHU216DAVISVP2,2013-10-11 11:01:00,
2013-10-11 07:06:00,44.8,42.9,30.18,NNW,336,0.0,1.0,93,0.00,,,0.00,7.0,WUHU216DAVISVP2,2013-10-11 11:06:00,
2013-10-11 07:11:00,44.7,42.8,30.19,NNW,336,0.0,1.0,93,0.00,,,0.00,9.0,WUHU216DAVISVP2,2013-10-11 11:11:00,
2013-10-11 07:16:00,44.8,42.9,30.19,NNW,336,0.0,1.0,93,0.00,,,0.00,12.0,WUHU216DAVISVP2,2013-10-11 11:16:00,
2013-10-11 07:21:00,44.8,42.9,30.19,NNW,336,0.0,1.0,93,0.00,,,0.00,18.0,WUHU216DAVISVP2,2013-10-11 11:21:00,
2013-10-11 07:26:00,44.9,43.0,30.19,NNW,336,0.0,0.0,93,0.00,,,0.00,23.0,WUHU216DAVISVP2,2013-10-11 11:26:00,
2013-10-11 07:31:00,45.0,43.1,30.19,NNW,336,0.0,0.0,93,0.00,,,0.00,28.0,WUHU216DAVISVP2,2013-10-11 11:31:00,
2013-10-11 07:36:00,45.3,43.4,30.19,NNW,336,0.0,0.0,93,0.00,,,0.00,25.0,WUHU216DAVISVP2,2013-10-11 11:36:00,
2013-10-11 07:41:00,45.6,43.7,30.20,NNW,336,0.0,1.0,93,0.00,,,0.00,23.0,WUHU216DAVISVP2,2013-10-11 11:41:00,
2013-10-11 07:46:00,45.7,43.8,30.19,NNW,336,0.0,1.0,93,0.00,,,0.00,23.0,WUHU216DAVISVP2,2013-10-11 11:46:00,
2013-10-11 07:51:00,45.8,43.9,30.20,NNW,336,0.0,1.0,93,0.00,,,0.00,25.0,WUHU216DAVISVP2,2013-10-11 11:51:00,
2013-10-11 07:56:00,45.8,43.9,30.19,NNW,336,0.0,1.0,93,0.00,,,0.00,30.0,WUHU216DAVISVP2,2013-10-11 11:56:00,
2013-10-11 08:01:00,45.8,43.9,30.20,NNW,336,0.0,1.0,93,0.00,,,0.00,37.0,WUHU216DAVISVP2,2013-10-11 12:01:00,
2013-10-11 08:06:00,45.9,43.9,30.20,NNW,336,0.0,1.0,93,0.00,,,0.00,47.0,WUHU216DAVISVP2,2013-10-11 12:06:00,
2013-10-11 08:11:00,46.1,44.1,30.20,NNW,336,0.0,1.0,93,0.00,,,0.00,58.0,WUHU216DAVISVP2,2013-10-11 12:11:00,
2013-10-11 08:16:00,46.3,44.3,30.20,NNW,336,1.0,1.0,93,0.00,,,0.00,67.0,WUHU216DAVISVP2,2013-10-11 12:16:00,
2013-10-11 08:21:00,46.6,44.6,30.20,NNW,336,0.0,1.0,93,0.00,,,0.00,74.0,WUHU216DAVISVP2,2013-10-11 12:21:00,
2013-10-11 08:26:00,46.8,44.9,30.20,NNW,336,1.0,1.0,93,0.00,,,0.00,79.0,WUHU216DAVISVP2,2013-10-11 12:26:00,
2013-10-11 08:31:00,47.2,45.3,30.20,NNW,336,1.0,2.0,93,0.00,,,0.00,88.0,WUHU216DAVISVP2,2013-10-11 12:31:00,
2013-10-11 08:36:00,47.6,45.7,30.20,NNW,336,1.0,2.0,93,0.00,,,0.00,100.0,WUHU216DAVISVP2,2013-10-11 12:36:00,
2013-10-11 08:41:00,47.8,45.9,30.20,NNW,336,1.0,2.0,93,0.00,,,0.00,114.0,WUHU216DAVISVP2,2013-10-11 12:41:00,
2013-10-11 08:46:00,47.9,45.7,30.20,NNW,336,1.0,2.0,92,0.00,,,0.00,123.0,WUHU216DAVISVP2,2013-10-11 12:46:00,
2013-10-11 08:51:00,48.0,45.8,30.20,NNW,336,1.0,2.0,92,0.00,,,0.00,137.0,WUHU216DAVISVP2,2013-10-11 12:51:00,
2013-10-11 08:56:00,48.2,46.0,30.20,WSW,255,0.0,3.0,92,0.00,,,0.00,149.0,WUHU216DAVISVP2,2013-10-11 12:56:00,
2013-10-11 09:02:00,48.7,46.5,30.21,WSW,255,0.0,3.0,92,0.00,,,0.00,156.0,WUHU216DAVISVP2,2013-10-11 13:02:00,
2013-10-11 09:07:00,49.3,46.8,30.20,WSW,255,1.0,3.0,91,0.00,,,0.00,171.0,WUHU216DAVISVP2,2013-10-11 13:07:00,
2013-10-11 09:12:00,50.1,47.6,30.20,WSW,255,1.0,3.0,91,0.00,,,0.00,181.0,WUHU216DAVISVP2,2013-10-11 13:12:00,
2013-10-11 09:17:00,51.3,48.8,30.20,WSW,255,0.0,1.0,91,0.00,,,0.00,179.0,WUHU216DAVISVP2,2013-10-11 13:17:00,
2013-10-11 09:22:00,51.2,47.8,30.20,WSW,255,1.0,1.0,88,0.00,,,0.00,176.0,WUHU216DAVISVP2,2013-10-11 13:22:00,
2013-10-11 09:27:00,51.8,48.4,30.20,WSW,255,0.0,1.0,88,0.00,,,0.00,176.0,WUHU216DAVISVP2,2013-10-11 13:27:00,
2013-10-11 09:32:00,52.6,48.5,30.20,WSW,255,1.0,1.0,86,0.00,,,0.00,178.0,WUHU216DAVISVP2,2013-10-11 13:32:00,
2013-10-11 09:37:00,51.9,47.5,30.20,WSW,256,1.0,2.0,85,0.00,,,0.00,185.0,WUHU216DAVISVP2,2013-10-11 13:37:00,
2013-10-11 09:42:00,52.0,48.2,30.20,WSW,256,1.0,2.0,87,0.00,,,0.00,192.0,WUHU216DAVISVP2,2013-10-11 13:42:00,
2013-10-11 09:47:00,52.2,48.1,30.20,WSW,255,0.0,2.0,86,0.00,,,0.00,204.0,WUHU216DAVISVP2,2013-10-11 13:47:00,
2013-10-11 09:52:00,53.5,49.4,30.20,WSW,256,1.0,2.0,86,0.00,,,0.00,209.0,WUHU216DAVISVP2,2013-10-11 13:52:00,
2013-10-11 09:57:00,53.1,48.7,30.20,WSW,256,0.0,2.0,85,0.00,,,0.00,223.0,WUHU216DAVISVP2,2013-10-11 13:57:00,
2013-10-11 10:02:00,53.9,49.5,30.20,WSW,256,0.0,2.0,85,0.00,,,0.00,241.0,WUHU216DAVISVP2,2013-10-11 14:02:00,
2013-10-11 10:07:00,54.2,48.8,30.20,WSW,256,0.0,1.0,82,0.00,,,0.00,246.0,WUHU216DAVISVP2,2013-10-11 14:07:00,
2013-10-11 10:12:00,54.2,48.5,30.20,WSW,255,0.0,2.0,81,0.00,,,0.00,248.0,WUHU216DAVISVP2,2013-10-11 14:12:00,
2013-10-11 10:17:00,55.3,50.2,30.20,WSW,255,1.0,2.0,83,0.00,,,0.00,253.0,WUHU216DAVISVP2,2013-10-11 14:17:00,
2013-10-11 10:22:00,55.7,49.7,30.20,WSW,255,0.0,2.0,80,0.00,,,0.00,255.0,WUHU216DAVISVP2,2013-10-11 14:22:00,
2013-10-11 10:27:00,55.0,49.0,30.20,WSW,256,1.0,2.0,80,0.00,,,0.00,264.0,WUHU216DAVISVP2,2013-10-11 14:27:00,
2013-10-11 10:32:00,55.6,49.6,30.20,WSW,256,1.0,2.0,80,0.00,,,0.00,267.0,WUHU216DAVISVP2,2013-10-11 14:32:00,
2013-10-11 10:37:00,56.7,50.0,30.19,WSW,256,1.0,2.0,78,0.00,,,0.00,290.0,WUHU216DAVISVP2,2013-10-11 14:37:00,
2013-10-11 10:42:00,56.2,49.8,30.19,WSW,256,2.0,2.0,79,0.00,,,0.00,366.0,WUHU216DAVISVP2,2013-10-11 14:42:00,
2013-10-11 10:47:00,57.4,51.3,30.19,WSW,256,0.0,2.0,80,0.00,,,0.00,355.0,WUHU216DAVISVP2,2013-10-11 14:47:00,
2013-10-11 10:52:00,58.7,50.1,30.19,SSW,200,1.0,3.0,73,0.00,,,0.00,360.0,WUHU216DAVISVP2,2013-10-11 14:52:00,
2013-10-11 10:57:00,58.6,50.0,30.19,SSW,202,1.0,3.0,73,0.00,,,0.00,369.0,WUHU216DAVISVP2,2013-10-11 14:57:00,
2013-10-11 11:02:00,58.7,50.2,30.19,SW,214,1.0,3.0,73,0.00,,,0.00,438.0,WUHU216DAVISVP2,2013-10-11 15:02:00,
2013-10-11 11:07:00,60.3,52.1,30.19,SW,214,1.0,3.0,74,0.00,,,0.00,497.0,WUHU216DAVISVP2,2013-10-11 15:07:00,
2013-10-11 11:12:00,60.2,51.3,30.18,SW,225,1.0,3.0,72,0.00,,,0.00,443.0,WUHU216DAVISVP2,2013-10-11 15:12:00,
2013-10-11 11:17:00,61.4,52.4,30.18,SW,225,2.0,3.0,72,0.00,,,0.00,385.0,WUHU216DAVISVP2,2013-10-11 15:17:00,
2013-10-11 11:22:00,61.5,50.6,30.18,SW,232,0.0,3.0,67,0.00,,,0.00,332.0,WUHU216DAVISVP2,2013-10-11 15:22:00,
2013-10-11 11:27:00,61.9,50.2,30.18,SW,221,1.0,3.0,65,0.00,,,0.00,330.0,WUHU216DAVISVP2,2013-10-11 15:27:00,
2013-10-11 11:32:00,63.2,51.4,30.18,SE,142,1.0,3.0,65,0.00,,,0.00,355.0,WUHU216DAVISVP2,2013-10-11 15:32:00,
2013-10-11 11:37:00,62.8,50.6,30.18,SE,144,1.0,3.0,64,0.00,,,0.00,339.0,WUHU216DAVISVP2,2013-10-11 15:37:00,
2013-10-11 11:42:00,62.3,48.4,30.18,SSE,155,1.0,2.0,60,0.00,,,0.00,345.0,WUHU216DAVISVP2,2013-10-11 15:42:00,
2013-10-11 11:47:00,62.5,47.6,30.18,SW,215,1.0,2.0,58,0.00,,,0.00,339.0,WUHU216DAVISVP2,2013-10-11 15:47:00,
2013-10-11 11:52:00,63.5,48.0,30.18,East,83,1.0,3.0,57,0.00,,,0.00,338.0,WUHU216DAVISVP2,2013-10-11 15:52:00,
2013-10-11 11:57:00,63.5,48.0,30.18,NW,319,1.0,3.0,57,0.00,,,0.00,362.0,WUHU216DAVISVP2,2013-10-11 15:57:00,
2013-10-11 12:02:00,63.7,48.2,30.18,WSW,252,0.0,3.0,57,0.00,,,0.00,445.0,WUHU216DAVISVP2,2013-10-11 16:02:00,
2013-10-11 12:07:00,65.8,50.3,30.18,ENE,67,2.0,3.0,57,0.00,,,0.00,721.0,WUHU216DAVISVP2,2013-10-11 16:07:00,
2013-10-11 12:12:00,67.4,47.6,30.17,West,263,2.0,4.0,49,0.00,,,0.00,534.0,WUHU216DAVISVP2,2013-10-11 16:12:00,
2013-10-11 12:17:00,66.0,47.4,30.17,WSW,250,1.0,4.0,51,0.00,,,0.00,373.0,WUHU216DAVISVP2,2013-10-11 16:17:00,
2013-10-11 12:22:00,65.4,47.9,30.17,WSW,248,1.0,4.0,53,0.00,,,0.00,308.0,WUHU216DAVISVP2,2013-10-11 16:22:00,
2013-10-11 12:27:00,66.4,49.9,30.17,ESE,118,1.0,4.0,55,0.00,,,0.00,352.0,WUHU216DAVISVP2,2013-10-11 16:27:00,
2013-10-11 12:32:00,67.0,48.8,30.17,WSW,238,1.0,4.0,52,0.00,,,0.00,478.0,WUHU216DAVISVP2,2013-10-11 16:32:00,
2013-10-11 12:37:00,66.7,47.5,30.16,WSW,257,1.0,4.0,50,0.00,,,0.00,566.0,WUHU216DAVISVP2,2013-10-11 16:37:00,
2013-10-11 12:42:00,68.6,49.3,30.16,WNW,282,1.0,3.0,50,0.00,,,0.00,670.0,WUHU216DAVISVP2,2013-10-11 16:42:00,
2013-10-11 12:47:00,69.2,47.5,30.16,West,259,3.0,4.0,46,0.00,,,0.00,751.0,WUHU216DAVISVP2,2013-10-11 16:47:00,
2013-10-11 12:52:00,70.1,47.1,30.16,WSW,255,2.0,4.0,44,0.00,,,0.00,729.0,WUHU216DAVISVP2,2013-10-11 16:52:00,
2013-10-11 12:57:00,69.6,47.9,30.15,West,277,1.0,4.0,46,0.00,,,0.00,612.0,WUHU216DAVISVP2,2013-10-11 16:57:00,
2013-10-11 13:02:00,71.0,48.0,30.15,WSW,238,0.0,4.0,44,0.00,,,0.00,570.0,WUHU216DAVISVP2,2013-10-11 17:02:00,
2013-10-11 13:07:00,69.9,45.8,30.15,WSW,246,2.0,4.0,42,0.00,,,0.00,508.0,WUHU216DAVISVP2,2013-10-11 17:07:00,
2013-10-11 13:12:00,70.2,46.6,30.15,WSW,243,0.0,3.0,43,0.00,,,0.00,446.0,WUHU216DAVISVP2,2013-10-11 17:12:00,
2013-10-11 13:17:00,70.3,46.0,30.14,West,262,2.0,3.0,42,0.00,,,0.00,469.0,WUHU216DAVISVP2,2013-10-11 17:17:00,
2013-10-11 13:22:00,69.8,44.3,30.14,WSW,253,2.0,3.0,40,0.00,,,0.00,392.0,WUHU216DAVISVP2,2013-10-11 17:22:00,
2013-10-11 13:27:00,69.5,46.6,30.14,West,267,1.0,3.0,44,0.00,,,0.00,390.0,WUHU216DAVISVP2,2013-10-11 17:27:00,
2013-10-11 13:32:00,68.5,43.8,30.14,West,263,2.0,4.0,41,0.00,,,0.00,290.0,WUHU216DAVISVP2,2013-10-11 17:32:00,
2013-10-11 13:37:00,68.3,44.2,30.14,West,268,2.0,4.0,42,0.00,,,0.00,281.0,WUHU216DAVISVP2,2013-10-11 17:37:00,
2013-10-11 13:42:00,68.5,44.4,30.14,WNW,294,1.0,4.0,42,0.00,,,0.00,269.0,WUHU216DAVISVP2,2013-10-11 17:42:00,
2013-10-11 13:47:00,68.8,45.9,30.14,WNW,302,1.0,4.0,44,0.00,,,0.00,258.0,WUHU216DAVISVP2,2013-10-11 17:47:00,
2013-10-11 13:52:00,68.7,45.9,30.14,WSW,257,2.0,3.0,44,0.00,,,0.00,265.0,WUHU216DAVISVP2,2013-10-11 17:52:00,
2013-10-11 13:57:00,69.2,45.7,30.14,WNW,287,2.0,3.0,43,0.00,,,0.00,269.0,WUHU216DAVISVP2,2013-10-11 17:57:00,
2013-10-11 14:02:00,69.4,45.9,30.14,ENE,78,1.0,3.0,43,0.00,,,0.00,295.0,WUHU216DAVISVP2,2013-10-11 18:02:00,
2013-10-11 14:07:00,69.8,45.6,30.14,NE,42,0.0,3.0,42,0.00,,,0.00,366.0,WUHU216DAVISVP2,2013-10-11 18:07:00,
2013-10-11 14:12:00,70.1,45.2,30.14,SE,126,1.0,4.0,41,0.00,,,0.00,343.0,WUHU216DAVISVP2,2013-10-11 18:12:00,
2013-10-11 14:17:00,69.7,46.1,30.14,West,267,2.0,4.0,43,0.00,,,0.00,318.0,WUHU216DAVISVP2,2013-10-11 18:17:00,
2013-10-11 14:22:00,69.2,44.4,30.14,West,262,1.0,4.0,41,0.00,,,0.00,292.0,WUHU216DAVISVP2,2013-10-11 18:22:00,
2013-10-11 14:27:00,69.7,45.5,30.14,East,97,2.0,4.0,42,0.00,,,0.00,325.0,WUHU216DAVISVP2,2013-10-11 18:27:00,
2013-10-11 14:32:00,70.6,45.7,30.14,SE,132,1.0,4.0,41,0.00,,,0.00,383.0,WUHU216DAVISVP2,2013-10-11 18:32:00,
2013-10-11 14:37:00,70.7,45.7,30.14,East,84,1.0,4.0,41,0.00,,,0.00,339.0,WUHU216DAVISVP2,2013-10-11 18:37:00,
2013-10-11 14:42:00,71.4,47.0,30.14,NW,305,2.0,4.0,42,0.00,,,0.00,341.0,WUHU216DAVISVP2,2013-10-11 18:42:00,
2013-10-11 14:47:00,71.7,46.0,30.14,NE,38,1.0,6.0,40,0.00,,,0.00,360.0,WUHU216DAVISVP2,2013-10-11 18:47:00,
2013-10-11 14:52:00,70.8,45.2,30.14,West,273,1.0,6.0,40,0.00,,,0.00,330.0,WUHU216DAVISVP2,2013-10-11 18:52:00,
2013-10-11 14:57:00,70.1,45.2,30.14,West,267,1.0,6.0,41,0.00,,,0.00,306.0,WUHU216DAVISVP2,2013-10-11 18:57:00,
2013-10-11 15:02:00,70.5,45.6,30.14,West,269,2.0,6.0,41,0.00,,,0.00,285.0,WUHU216DAVISVP2,2013-10-11 19:02:00,
2013-10-11 15:07:00,70.1,46.6,30.14,WSW,254,0.0,4.0,43,0.00,,,0.00,279.0,WUHU216DAVISVP2,2013-10-11 19:07:00,
2013-10-11 15:12:00,71.1,44.8,30.14,WSW,254,1.0,4.0,39,0.00,,,0.00,243.0,WUHU216DAVISVP2,2013-10-11 19:12:00,
2013-10-11 15:17:00,71.1,45.4,30.14,ENE,59,1.0,3.0,40,0.00,,,0.00,220.0,WUHU216DAVISVP2,2013-10-11 19:17:00,
2013-10-11 15:22:00,71.1,49.3,30.14,ENE,59,1.0,3.0,46,0.00,,,0.00,197.0,WUHU216DAVISVP2,2013-10-11 19:22:00,
2013-10-11 15:27:00,70.8,45.2,30.14,ENE,59,1.0,2.0,40,0.00,,,0.00,179.0,WUHU216DAVISVP2,2013-10-11 19:27:00,
2013-10-11 15:32:00,70.2,47.8,30.14,ENE,59,1.0,2.0,45,0.00,,,0.00,162.0,WUHU216DAVISVP2,2013-10-11 19:32:00,
2013-10-11 15:37:00,69.5,50.1,30.14,ENE,59,1.0,2.0,50,0.00,,,0.00,153.0,WUHU216DAVISVP2,2013-10-11 19:37:00,
2013-10-11 15:42:00,68.8,51.1,30.14,ENE,59,1.0,2.0,53,0.00,,,0.00,142.0,WUHU216DAVISVP2,2013-10-11 19:42:00,
2013-10-11 15:47:00,68.3,51.6,30.14,ENE,59,1.0,2.0,55,0.00,,,0.00,128.0,WUHU216DAVISVP2,2013-10-11 19:47:00,
2013-10-11 15:52:00,67.9,51.3,30.14,ENE,59,1.0,2.0,55,0.00,,,0.00,120.0,WUHU216DAVISVP2,2013-10-11 19:52:00,
2013-10-11 15:57:00,67.5,51.4,30.14,ENE,59,1.0,2.0,56,0.00,,,0.00,116.0,WUHU216DAVISVP2,2013-10-11 19:57:00,
2013-10-11 16:02:00,67.3,51.7,30.14,ENE,59,0.0,2.0,57,0.00,,,0.00,113.0,WUHU216DAVISVP2,2013-10-11 20:02:00,
2013-10-11 16:07:00,67.0,51.3,30.13,ENE,59,1.0,2.0,57,0.00,,,0.00,114.0,WUHU216DAVISVP2,2013-10-11 20:07:00,
2013-10-11 16:12:00,67.0,52.7,30.13,ENE,59,1.0,2.0,60,0.00,,,0.00,130.0,WUHU216DAVISVP2,2013-10-11 20:12:00,
2013-10-11 16:17:00,67.2,52.5,30.14,ENE,59,1.0,2.0,59,0.00,,,0.00,128.0,WUHU216DAVISVP2,2013-10-11 20:17:00,
2013-10-11 16:22:00,67.2,52.5,30.13,ENE,59,0.0,2.0,59,0.00,,,0.00,127.0,WUHU216DAVISVP2,2013-10-11 20:22:00,
2013-10-11 16:27:00,67.5,52.8,30.13,ENE,59,0.0,2.0,59,0.00,,,0.00,114.0,WUHU216DAVISVP2,2013-10-11 20:27:00,
2013-10-11 16:32:00,67.7,52.5,30.14,ENE,59,0.0,2.0,58,0.00,,,0.00,109.0,WUHU216DAVISVP2,2013-10-11 20:32:00,
2013-10-11 16:37:00,66.9,52.7,30.14,ENE,59,1.0,2.0,60,0.00,,,0.00,111.0,WUHU216DAVISVP2,2013-10-11 20:37:00,
2013-10-11 16:42:00,67.2,51.9,30.14,ENE,59,0.0,2.0,58,0.00,,,0.00,109.0,WUHU216DAVISVP2,2013-10-11 20:42:00,
2013-10-11 16:47:00,67.3,52.6,30.14,ENE,59,1.0,1.0,59,0.00,,,0.00,84.0,WUHU216DAVISVP2,2013-10-11 20:47:00,
2013-10-11 16:52:00,66.2,52.1,30.14,ENE,59,1.0,1.0,60,0.00,,,0.00,63.0,WUHU216DAVISVP2,2013-10-11 20:52:00,
2013-10-11 16:57:00,65.2,51.6,30.14,ENE,59,1.0,2.0,61,0.00,,,0.00,58.0,WUHU216DAVISVP2,2013-10-11 20:57:00,
2013-10-11 17:02:00,64.5,52.2,30.15,ENE,59,1.0,2.0,64,0.00,,,0.00,56.0,WUHU216DAVISVP2,2013-10-11 21:02:00,
2013-10-11 17:07:00,63.8,52.0,30.14,ENE,59,1.0,2.0,65,0.00,,,0.00,51.0,WUHU216DAVISVP2,2013-10-11 21:07:00,
2013-10-11 17:12:00,63.5,52.1,30.14,ENE,59,0.0,2.0,66,0.00,,,0.00,44.0,WUHU216DAVISVP2,2013-10-11 21:12:00,
2013-10-11 17:17:00,63.2,51.8,30.14,North,5,0.0,2.0,66,0.00,,,0.00,35.0,WUHU216DAVISVP2,2013-10-11 21:17:00,
2013-10-11 17:22:00,62.5,51.5,30.15,North,5,1.0,2.0,67,0.00,,,0.00,28.0,WUHU216DAVISVP2,2013-10-11 21:22:00,
2013-10-11 17:27:00,62.1,51.2,30.15,North,5,0.0,2.0,67,0.00,,,0.00,25.0,WUHU216DAVISVP2,2013-10-11 21:27:00,
2013-10-11 17:32:00,61.6,51.5,30.15,North,5,0.0,2.0,69,0.00,,,0.00,23.0,WUHU216DAVISVP2,2013-10-11 21:32:00,
2013-10-11 17:37:00,61.0,52.0,30.15,North,5,1.0,2.0,72,0.00,,,0.00,21.0,WUHU216DAVISVP2,2013-10-11 21:37:00,
2013-10-11 17:42:00,60.5,52.3,30.15,North,5,1.0,2.0,74,0.00,,,0.00,19.0,WUHU216DAVISVP2,2013-10-11 21:42:00,
2013-10-11 17:47:00,59.8,52.0,30.15,North,5,1.0,2.0,75,0.00,,,0.00,12.0,WUHU216DAVISVP2,2013-10-11 21:47:00,
2013-10-11 17:52:00,59.2,52.1,30.15,North,5,0.0,2.0,77,0.00,,,0.00,9.0,WUHU216DAVISVP2,2013-10-11 21:52:00,
2013-10-11 17:57:00,58.7,52.3,30.15,North,5,0.0,2.0,79,0.00,,,0.00,7.0,WUHU216DAVISVP2,2013-10-11 21:57:00,
2013-10-11 18:02:00,58.2,51.8,30.15,North,5,0.0,2.0,79,0.00,,,0.00,5.0,WUHU216DAVISVP2,2013-10-11 22:02:00,
2013-10-11 18:07:00,58.1,51.3,30.15,North,5,0.0,2.0,78,0.00,,,0.00,0.0,WUHU216DAVISVP2,2013-10-11 22:07:00,
2013-10-11 18:12:00,57.9,51.5,30.15,North,5,0.0,1.0,79,0.00,,,0.00,0.0,WUHU216DAVISVP2,2013-10-11 22:12:00,
2013-10-11 18:17:00,57.2,51.1,30.15,North,5,0.0,1.0,80,0.00,,,0.00,0.0,WUHU216DAVISVP2,2013-10-11 22:17:00,
2013-10-11 18:22:00,56.6,50.9,30.15,North,5,0.0,1.0,81,0.00,,,0.00,0.0,WUHU216DAVISVP2,2013-10-11 22:22:00,
2013-10-11 18:27:00,55.9,50.5,30.16,North,5,0.0,1.0,82,0.00,,,0.00,0.0,WUHU216DAVISVP2,2013-10-11 22:27:00,
2013-10-11 18:32:00,55.4,50.0,30.16,North,5,0.0,1.0,82,0.00,,,0.00,0.0,WUHU216DAVISVP2,2013-10-11 22:32:00,
2013-10-11 18:37:00,55.4,50.3,30.16,North,5,0.0,1.0,83,0.00,,,0.00,0.0,WUHU216DAVISVP2,2013-10-11 22:37:00,
2013-10-11 18:42:00,55.0,49.9,30.16,North,5,0.0,1.0,83,0.00,,,0.00,0.0,WUHU216DAVISVP2,2013-10-11 22:42:00,
2013-10-11 18:47:00,54.9,49.9,30.16,North,5,0.0,1.0,83,0.00,,,0.00,0.0,WUHU216DAVISVP2,2013-10-11 22:47:00,
2013-10-11 18:52:00,55.1,50.0,30.16,North,5,0.0,1.0,83,0.00,,,0.00,0.0,WUHU216DAVISVP2,2013-10-11 22:52:00,
2013-10-11 18:57:00,55.0,50.3,30.16,North,5,2.0,2.0,84,0.00,,,0.00,0.0,WUHU216DAVISVP2,2013-10-11 22:57:00,
2013-10-11 19:02:00,54.6,49.9,30.16,North,5,1.0,2.0,84,0.00,,,0.00,0.0,WUHU216DAVISVP2,2013-10-11 23:02:00,
2013-10-11 19:07:00,53.9,49.8,30.16,North,5,0.0,2.0,86,0.00,,,0.00,0.0,WUHU216DAVISVP2,2013-10-11 23:07:00,
2013-10-11 19:12:00,53.6,49.2,30.16,North,5,0.0,2.0,85,0.00,,,0.00,0.0,WUHU216DAVISVP2,2013-10-11 23:12:00,
2013-10-11 19:17:00,53.1,48.7,30.16,North,5,0.0,2.0,85,0.00,,,0.00,0.0,WUHU216DAVISVP2,2013-10-11 23:17:00,
2013-10-11 19:22:00,52.7,48.3,30.16,North,5,0.0,1.0,85,0.00,,,0.00,0.0,WUHU216DAVISVP2,2013-10-11 23:22:00,
2013-10-11 19:27:00,52.3,48.5,30.16,North,5,0.0,0.0,87,0.00,,,0.00,0.0,WUHU216DAVISVP2,2013-10-11 23:27:00,
2013-10-11 19:32:00,52.1,48.3,30.16,North,5,0.0,1.0,87,0.00,,,0.00,0.0,WUHU216DAVISVP2,2013-10-11 23:32:00,
2013-10-11 19:37:00,52.2,48.7,30.16,North,5,0.0,1.0,88,0.00,,,0.00,0.0,WUHU216DAVISVP2,2013-10-11 23:37:00,
2013-10-11 19:42:00,52.1,48.3,30.17,North,5,0.0,1.0,87,0.00,,,0.00,0.0,WUHU216DAVISVP2,2013-10-11 23:42:00,
2013-10-11 19:47:00,51.7,48.2,30.17,North,5,1.0,1.0,88,0.00,,,0.00,0.0,WUHU216DAVISVP2,2013-10-11 23:47:00,
2013-10-11 19:52:00,51.8,48.3,30.17,North,5,0.0,1.0,88,0.00,,,0.00,0.0,WUHU216DAVISVP2,2013-10-11 23:52:00,
2013-10-11 19:57:00,51.2,47.4,30.17,North,5,0.0,1.0,87,0.00,,,0.00,0.0,WUHU216DAVISVP2,2013-10-11 23:57:00,
2013-10-11 20:02:00,51.2,47.7,30.17,North,5,0.0,1.0,88,0.00,,,0.00,0.0,WUHU216DAVISVP2,2013-10-12 00:02:00,
2013-10-11 20:07:00,50.9,47.4,30.17,North,5,1.0,2.0,88,0.00,,,0.00,0.0,WUHU216DAVISVP2,2013-10-12 00:07:00,
2013-10-11 20:12:00,50.6,47.4,30.17,North,5,0.0,2.0,89,0.00,,,0.00,0.0,WUHU216DAVISVP2,2013-10-12 00:12:00,
2013-10-11 20:17:00,50.2,47.1,30.17,North,5,0.0,2.0,89,0.00,,,0.00,0.0,WUHU216DAVISVP2,2013-10-12 00:17:00,
2013-10-11 20:22:00,49.8,46.7,30.17,North,5,0.0,2.0,89,0.00,,,0.00,0.0,WUHU216DAVISVP2,2013-10-12 00:22:00,
2013-10-11 20:27:00,49.5,46.7,30.17,North,5,0.0,1.0,90,0.00,,,0.00,0.0,WUHU216DAVISVP2,2013-10-12 00:27:00,
2013-10-11 20:32:00,49.1,46.3,30.18,North,5,0.0,1.0,90,0.00,,,0.00,0.0,WUHU216DAVISVP2,2013-10-12 00:32:00,
2013-10-11 20:37:00,49.0,46.2,30.18,North,5,0.0,1.0,90,0.00,,,0.00,0.0,WUHU216DAVISVP2,2013-10-12 00:37:00,
2013-10-11 20:42:00,48.8,46.0,30.18,North,5,0.0,1.0,90,0.00,,,0.00,0.0,WUHU216DAVISVP2,2013-10-12 00:42:00,
2013-10-11 20:47:00,48.7,46.1,30.18,North,5,0.0,1.0,91,0.00,,,0.00,0.0,WUHU216DAVISVP2,2013-10-12 00:47:00,
2013-10-11 20:52:00,48.5,45.7,30.18,North,5,0.0,1.0,90,0.00,,,0.00,0.0,WUHU216DAVISVP2,2013-10-12 00:52:00,
2013-10-11 20:57:00,48.2,45.4,30.18,North,5,0.0,0.0,90,0.00,,,0.00,0.0,WUHU216DAVISVP2,2013-10-12 00:57:00,
2013-10-11 21:02:00,47.9,45.1,30.18,North,5,0.0,0.0,90,0.00,,,0.00,0.0,WUHU216DAVISVP2,2013-10-12 01:02:00,
2013-10-11 21:07:00,48.0,45.5,30.18,North,5,0.0,0.0,91,0.00,,,0.00,0.0,WUHU216DAVISVP2,2013-10-12 01:07:00,
2013-10-11 21:12:00,47.9,45.4,30.19,North,5,0.0,0.0,91,0.00,,,0.00,0.0,WUHU216DAVISVP2,2013-10-12 01:12:00,
2013-10-11 21:17:00,47.6,45.1,30.19,North,5,0.0,0.0,91,0.00,,,0.00,0.0,WUHU216DAVISVP2,2013-10-12 01:17:00,
2013-10-11 21:22:00,47.4,44.6,30.19,North,5,0.0,0.0,90,0.00,,,0.00,0.0,WUHU216DAVISVP2,2013-10-12 01:22:00,
2013-10-11 21:27:00,47.4,44.9,30.19,North,5,0.0,0.0,91,0.00,,,0.00,0.0,WUHU216DAVISVP2,2013-10-12 01:27:00,
2013-10-11 21:32:00,47.5,45.0,30.19,North,5,0.0,0.0,91,0.00,,,0.00,0.0,WUHU216DAVISVP2,2013-10-12 01:32:00,
2013-10-11 21:37:00,47.3,44.8,30.19,North,5,0.0,1.0,91,0.00,,,0.00,0.0,WUHU216DAVISVP2,2013-10-12 01:37:00,
2013-10-11 21:42:00,47.0,44.5,30.19,North,5,0.0,1.0,91,0.00,,,0.00,0.0,WUHU216DAVISVP2,2013-10-12 01:42:00,
2013-10-11 21:47:00,46.9,44.4,30.20,North,5,0.0,1.0,91,0.00,,,0.00,0.0,WUHU216DAVISVP2,2013-10-12 01:47:00,
2013-10-11 21:52:00,46.6,44.1,30.20,North,5,0.0,1.0,91,0.00,,,0.00,0.0,WUHU216DAVISVP2,2013-10-12 01:52:00,
2013-10-11 21:57:00,46.5,44.0,30.20,North,5,0.0,1.0,91,0.00,,,0.00,0.0,WUHU216DAVISVP2,2013-10-12 01:57:00,
2013-10-11 22:02:00,46.2,43.7,30.20,North,5,0.0,1.0,91,0.00,,,0.00,0.0,WUHU216DAVISVP2,2013-10-12 02:02:00,
2013-10-11 22:07:00,46.2,44.0,30.20,North,5,0.0,1.0,92,0.00,,,0.00,0.0,WUHU216DAVISVP2,2013-10-12 02:07:00,
2013-10-11 22:12:00,45.9,43.7,30.20,North,5,0.0,1.0,92,0.00,,,0.00,0.0,WUHU216DAVISVP2,2013-10-12 02:12:00,
2013-10-11 22:17:00,45.7,43.5,30.20,North,5,0.0,1.0,92,0.00,,,0.00,0.0,WUHU216DAVISVP2,2013-10-12 02:17:00,
2013-10-11 22:22:00,45.4,43.2,30.20,North,5,1.0,1.0,92,0.00,,,0.00,0.0,WUHU216DAVISVP2,2013-10-12 02:22:00,
2013-10-11 22:27:00,45.2,43.0,30.20,North,5,0.0,1.0,92,0.00,,,0.00,0.0,WUHU216DAVISVP2,2013-10-12 02:27:00,
2013-10-11 22:32:00,45.5,43.3,30.20,North,5,0.0,1.0,92,0.00,,,0.00,0.0,WUHU216DAVISVP2,2013-10-12 02:32:00,
2013-10-11 22:37:00,46.5,44.6,30.20,North,5,0.0,1.0,93,0.00,,,0.00,0.0,WUHU216DAVISVP2,2013-10-12 02:37:00,
2013-10-11 22:42:00,46.9,44.7,30.20,North,5,0.0,1.0,92,0.00,,,0.00,0.0,WUHU216DAVISVP2,2013-10-12 02:42:00,
2013-10-11 22:47:00,46.9,44.7,30.20,North,5,1.0,1.0,92,0.00,,,0.00,0.0,WUHU216DAVISVP2,2013-10-12 02:47:00,
2013-10-11 22:52:00,46.8,44.6,30.20,North,5,0.0,2.0,92,0.00,,,0.00,0.0,WUHU216DAVISVP2,2013-10-12 02:52:00,
2013-10-11 22:57:00,46.4,44.2,30.21,North,5,0.0,2.0,92,0.00,,,0.00,0.0,WUHU216DAVISVP2,2013-10-12 02:57:00,
2013-10-11 23:02:00,45.8,43.6,30.21,North,5,1.0,2.0,92,0.00,,,0.00,0.0,WUHU216DAVISVP2,2013-10-12 03:02:00,
2013-10-11 23:07:00,45.2,42.7,30.21,North,5,0.0,1.0,91,0.00,,,0.00,0.0,WUHU216DAVISVP2,2013-10-12 03:07:00,
2013-10-11 23:12:00,44.8,42.3,30.21,North,5,0.0,1.0,91,0.00,,,0.00,0.0,WUHU216DAVISVP2,2013-10-12 03:12:00,
2013-10-11 23:17:00,44.5,42.0,30.21,North,5,0.0,1.0,91,0.00,,,0.00,0.0,WUHU216DAVISVP2,2013-10-12 03:17:00,
2013-10-11 23:22:00,44.3,42.1,30.21,North,5,0.0,1.0,92,0.00,,,0.00,0.0,WUHU216DAVISVP2,2013-10-12 03:22:00,
2013-10-11 23:27:00,44.4,42.2,30.21,North,5,0.0,0.0,92,0.00,,,0.00,0.0,WUHU216DAVISVP2,2013-10-12 03:27:00,
2013-10-11 23:32:00,44.5,42.3,30.21,North,5,0.0,0.0,92,0.00,,,0.00,0.0,WUHU216DAVISVP2,2013-10-12 03:32:00,
2013-10-11 23:37:00,44.7,42.5,30.21,North,5,0.0,1.0,92,0.00,,,0.00,0.0,WUHU216DAVISVP2,2013-10-12 03:37:00,
2013-10-11 23:42:00,44.4,42.2,30.21,North,5,0.0,1.0,92,0.00,,,0.00,0.0,WUHU216DAVISVP2,2013-10-12 03:42:00,
2013-10-11 23:47:00,44.1,41.9,30.21,North,5,0.0,1.0,92,0.00,,,0.00,0.0,WUHU216DAVISVP2,2013-10-12 03:47:00,
2013-10-11 23:52:00,43.9,41.7,30.21,North,5,0.0,1.0,92,0.00,,,0.00,0.0,WUHU216DAVISVP2,2013-10-12 03:52:00,
2013-10-11 23:57:00,44.2,42.0,30.21,North,5,0.0,0.0,92,0.00,,,0.00,0.0,WUHU216DAVISVP2,2013-10-12 03:57:00,